Oktaha, Oklahoma
Current Conditions -  °F | °C
As of 3:53 AM on Saturday 22 Nov 2014 (Local Time) from KMKO Reporting Station
Overcast Overcast  
Wind Chill: 54°   Ceiling: 1900
Heat Index: 54°   Visibility: 10mi
Dew Point: 48°   Wind: 9mph
Humidity: 80%   Direction: 140°SE
Pressure: 30.1"   Gusts: NA
Location:  35.58°N, 95.47°W
Report Text: KMKO 220953Z AUTO 14008KT 10SM OVC019 12/09 A3010 RMK AO2 SLP191 T01220089
Loading
Personal Weather Stations






























Interactive Weather Map New forecast layout! Learn more

10-Day Weather Forecast

Advertisements
Track Severe Weather on mobile